METAR AND TAF INFORMATION
METAR FOR LBWN
ADDS - METARS form results

(0548 UTC 14 August 2020)
Data provider http://aviationweather.gov/metar/data/
 
METAR text: LBWN 140530Z VRB02KT CAVOK 22/18 Q1015 NOSIG
Conditions at: LBWN (VARNA , BG) observed 0530 UTC 14 August 2020
Temperature: 22.0°C (72°F)
Dewpoint: 18.0°C (64°F) [RH = 78%]
Pressure (altimeter): 29.97 inches Hg (1015.0 mb)
Winds: variable direction winds at 2 MPH (2 knots; 1.0 m/s)
Visibility: 6 or more miles (10+ km)
Ceiling: ceiling and visibility are OK
Clouds: unknown
Weather: no significant weather observed at this time

METAR text: LBWN 140500Z 00000KT CAVOK 21/18 Q1015 NOSIG
Conditions at: LBWN (VARNA , BG) observed 0500 UTC 14 August 2020
Temperature: 21.0°C (70°F)
Dewpoint: 18.0°C (64°F) [RH = 83%]
Pressure (altimeter): 29.97 inches Hg (1015.0 mb)
Winds: calm
Visibility: 6 or more miles (10+ km)
Ceiling: ceiling and visibility are OK
Clouds: unknown
Weather: no significant weather observed at this time

Forecast for: LBWN (VARNA , BG)
Text: TAF LBWN 140500Z 1406/1506 VRB04KT CAVOK
Forecast period: 0600 to 0700 UTC 14 August 2020
Forecast type: FROM: standard forecast or significant change
Winds: variable direction winds at 5 MPH (4 knots; 2.1 m/s)
Visibility: 6 or more miles (10+ km)
Ceiling: unknown
Clouds: missing
Weather: NSW  (no significant weather)
Text: BECMG 1407/1409 12014KT
Forecast period: 0700 to 1900 UTC 14 August 2020
Forecast type: BECOMING: Conditions expected to become as follows by 0900 UTC 14 August 2020
Winds: from the ESE (120 degrees) at 16 MPH (14 knots; 7.2 m/s)
Visibility: 6 or more miles (10+ km)
Ceiling: unknown
Clouds: missing
Weather: NSW  (no significant weather)
Text: BECMG 1419/1421 VRB04KT
Forecast period: 1900 UTC 14 August 2020 to 0600 UTC 15 August 2020
Forecast type: BECOMING: Conditions expected to become as follows by 2100 UTC 14 August 2020
Winds: variable direction winds at 5 MPH (4 knots; 2.1 m/s)
Visibility: 6 or more miles (10+ km)
Ceiling: unknown
Clouds: missing
Weather: NSW  (no significant weather)

 AIRPORT MAP

 RUNWAY INFORMATION
Runway 09 Runway length 8202 ft Runway width 180 ft
Runway elevation 203 ft Runway displaced threshold 0 ft Runway heading 97
Runway 27 Runway length 8202 ft Runway width 180 ft
Runway elevation 217 ft Runway displaced threshold 0 ft Runway heading 277

 AIRPORT FREQUENCIES
Type APP Name APP Frequency 121 MHZ
Type ATIS Name ATIS Frequency 118.075 MHZ
Type TWR Name TWR Frequency 119.5 MHZ

 AIRPORT NEAR NAVIGATION AIDS
Type NDB Name Devnya Frequency 350 KHZ
Type NDB Name Varna Frequency 375 KHZ
Type NDB Name Varna Frequency 335 KHZ
Type NDB Name Varna Frequency 397 KHZ
Type NDB Name Varna Frequency 526 KHZ
Type VOR-DME Name Varna Frequency 112400 KHZ